This is the latest recevied weather packets stored in our database for station/object YO4CIL-MG. If no packets are shown the sender has not sent any weather packets the latest 10 day(s).
| Time | Temp. | Humidity | Pressure | Rain* | Wind** | Luminosity | Snow |
|---|---|---|---|---|---|---|---|
| 1777050913 | 16.67° C | 46% | 1011.7 hPa | - | - | - | - |
| 1777050313 | 17.22° C | 43% | 1011.5 hPa | - | - | - | - |
| 1777049713 | 17.22° C | 43% | 1011.5 hPa | - | - | - | - |
| 1777049113 | 17.78° C | 42% | 1011.3 hPa | - | - | - | - |
| 1777048513 | 17.78° C | 42% | 1011.2 hPa | - | - | - | - |
| 1777047913 | 18.33° C | 41% | 1011 hPa | - | - | - | - |
| 1777047313 | 18.89° C | 39% | 1011 hPa | - | - | - | - |
| 1777046715 | 20° C | 38% | 1010.9 hPa | - | - | - | - |
| 1777046113 | 20° C | 37% | 1010.7 hPa | - | - | - | - |
| 1777045513 | 20° C | 37% | 1010.8 hPa | - | - | - | - |
| 1777044913 | 20° C | 36% | 1010.8 hPa | - | - | - | - |
| 1777044313 | 20° C | 36% | 1010.8 hPa | - | - | - | - |
| 1777043713 | 20° C | 37% | 1010.7 hPa | - | - | - | - |
| 1777043113 | 20° C | 39% | 1010.7 hPa | - | - | - | - |
| 1777042513 | 19.44° C | 39% | 1010.7 hPa | - | - | - | - |
| 1777041913 | 19.44° C | 39% | 1010.6 hPa | - | - | - | - |
| 1777041313 | 19.44° C | 39% | 1010.6 hPa | - | - | - | - |
| 1777040713 | 20° C | 39% | 1010.5 hPa | - | - | - | - |
| 1777040112 | 19.44° C | 42% | 1010.4 hPa | - | - | - | - |
| 1777039512 | 20° C | 41% | 1010.6 hPa | - | - | - | - |
| 1777038913 | 19.44° C | 42% | 1010.4 hPa | - | - | - | - |
| 1777038313 | 19.44° C | 43% | 1010.4 hPa | - | - | - | - |
| 1777037713 | 18.33° C | 48% | 1010.4 hPa | - | - | - | - |
| 1777037113 | 17.78° C | 49% | 1010.4 hPa | - | - | - | - |
| 1777036513 | 17.78° C | 50% | 1010.4 hPa | - | - | - | - |
* Rain since midnight (hover to see other rain measurements)
** Current wind speed in m/s (hover to see current wind gust speed)